Time;durP1;ratioP1;P1;durP2;ratioP2;P2;SDS_P1;SDS_P2;PMS_P1;PMS_P2;Temp;Humidity;BMP_temperature;BMP_pressure;BME280_temperature;BME280_humidity;BME280_pressure;Samples;Min_cycle;Max_cycle;Signal;HPM_P1;HPM_P2
2024/02/23 00:00:30;;;;;;;0.88;0.40;;;19.50;61.00;;;;;;5032933;28;20961;-52
2024/02/23 00:02:57;;;;;;;1.40;0.30;;;19.50;61.00;;;;;;5040136;28;20056;-48
2024/02/23 00:05:23;;;;;;;0.50;0.40;;;19.50;60.90;;;;;;5034464;28;20964;-50
2024/02/23 00:07:49;;;;;;;2.05;0.40;;;19.60;61.00;;;;;;5037046;28;20099;-50
2024/02/23 00:10:15;;;;;;;1.40;0.20;;;19.50;60.90;;;;;;5033090;28;20029;-46
2024/02/23 00:12:41;;;;;;;4.07;0.40;;;19.50;60.90;;;;;;5040013;28;20043;-51
2024/02/23 00:15:07;;;;;;;0.98;0.30;;;19.50;60.90;;;;;;5034534;28;20048;-48
2024/02/23 00:17:32;;;;;;;0.43;0.20;;;19.50;60.90;;;;;;5041366;28;20037;-47
2024/02/23 00:19:58;;;;;;;2.15;0.20;;;19.50;60.90;;;;;;5035249;28;20041;-48
2024/02/23 00:22:25;;;;;;;2.42;0.60;;;19.50;60.80;;;;;;5036661;28;20128;-49
2024/02/23 00:24:51;;;;;;;0.68;0.30;;;19.50;60.80;;;;;;5022792;28;20091;-56
2024/02/23 00:27:16;;;;;;;0.40;0.30;;;19.50;60.80;;;;;;5041964;28;20477;-46
2024/02/23 00:29:42;;;;;;;0.35;0.20;;;19.50;60.80;;;;;;5035294;28;20068;-50
2024/02/23 00:32:07;;;;;;;0.38;0.28;;;19.50;60.80;;;;;;5038766;28;20040;-49
2024/02/23 00:34:33;;;;;;;0.82;0.52;;;19.50;60.80;;;;;;5031984;28;20398;-55
2024/02/23 00:36:58;;;;;;;2.17;0.30;;;19.50;60.70;;;;;;5039070;28;20100;-47
2024/02/23 00:39:24;;;;;;;0.30;0.20;;;19.50;60.70;;;;;;5038266;28;20121;-49
2024/02/23 00:41:49;;;;;;;0.30;0.30;;;19.50;60.70;;;;;;5035604;28;20125;-54
2024/02/23 00:44:15;;;;;;;0.15;0.10;;;19.50;60.70;;;;;;5023378;28;20025;-46
2024/02/23 00:46:40;;;;;;;1.23;0.38;;;19.50;60.70;;;;;;5039716;28;20150;-46
2024/02/23 00:49:06;;;;;;;0.50;0.30;;;19.50;60.60;;;;;;5029965;28;20052;-52
2024/02/23 00:51:32;;;;;;;0.40;0.28;;;19.50;60.70;;;;;;5037970;28;20486;-57
2024/02/23 00:53:57;;;;;;;0.20;0.20;;;19.50;60.60;;;;;;5027325;28;20029;-49
2024/02/23 00:56:23;;;;;;;1.58;0.20;;;19.50;60.70;;;;;;5035595;28;20036;-47
2024/02/23 00:58:48;;;;;;;0.20;0.20;;;19.50;60.60;;;;;;5032033;28;20375;-48
2024/02/23 01:01:14;;;;;;;0.55;0.30;;;19.50;60.60;;;;;;5032365;28;20057;-56
2024/02/23 01:03:39;;;;;;;1.05;0.30;;;19.50;60.60;;;;;;5031286;28;20625;-50
2024/02/23 01:06:05;;;;;;;0.40;0.30;;;19.40;61.10;;;;;;5032298;28;20044;-49
2024/02/23 01:08:31;;;;;;;0.52;0.25;;;19.50;60.60;;;;;;5033678;28;20049;-49
2024/02/23 01:10:56;;;;;;;0.30;0.17;;;19.50;60.60;;;;;;5034882;28;20098;-49
2024/02/23 01:13:22;;;;;;;0.40;0.17;;;19.50;60.60;;;;;;5035321;28;20036;-50
2024/02/23 01:15:47;;;;;;;2.15;0.20;;;19.40;60.50;;;;;;5036755;28;20498;-49
2024/02/23 01:18:14;;;;;;;0.30;0.30;;;19.40;60.60;;;;;;5031039;28;20055;-51
2024/02/23 01:20:39;;;;;;;1.05;0.20;;;19.50;60.70;;;;;;5030299;28;20037;-50
2024/02/23 01:23:05;;;;;;;3.10;0.30;;;19.40;60.50;;;;;;5030622;28;20037;-50
2024/02/23 01:25:30;;;;;;;0.55;0.20;;;19.40;60.50;;;;;;5034740;28;20538;-48
2024/02/23 01:27:56;;;;;;;0.30;0.30;;;19.40;60.50;;;;;;5028512;28;20036;-49
2024/02/23 01:30:21;;;;;;;0.20;0.20;;;19.40;60.50;;;;;;5039000;28;20037;-52
2024/02/23 01:32:47;;;;;;;0.43;0.20;;;19.40;60.60;;;;;;5029775;28;20083;-49
2024/02/23 01:35:13;;;;;;;0.20;0.20;;;19.40;60.60;;;;;;5039277;28;20032;-50
2024/02/23 01:37:38;;;;;;;0.30;0.20;;;19.40;60.60;;;;;;5033592;28;20081;-51
2024/02/23 01:40:04;;;;;;;0.30;0.20;;;19.40;60.60;;;;;;5033222;28;20493;-48
2024/02/23 01:42:29;;;;;;;0.25;0.20;;;19.40;60.60;;;;;;5031913;28;20063;-50
2024/02/23 01:45:00;;;;;;;0.30;0.30;;;19.40;60.70;;;;;;5035376;28;20026;-48
2024/02/23 01:47:25;;;;;;;1.08;0.25;;;19.40;60.70;;;;;;5025398;28;20399;-48
2024/02/23 01:49:52;;;;;;;0.63;0.32;;;19.30;60.60;;;;;;5033080;28;20034;-49
2024/02/23 01:52:18;;;;;;;1.15;0.65;;;19.30;60.60;;;;;;5038432;28;20025;-50
2024/02/23 01:54:44;;;;;;;0.17;0.10;;;19.30;60.60;;;;;;5032519;28;20029;-49
2024/02/23 01:57:10;;;;;;;0.20;0.15;;;19.30;60.60;;;;;;5029752;28;20021;-48
2024/02/23 01:59:37;;;;;;;0.20;0.20;;;19.30;60.50;;;;;;5028183;28;20029;-50
2024/02/23 02:02:04;;;;;;;0.30;0.20;;;19.30;60.50;;;;;;5033352;28;20029;-52
2024/02/23 02:04:30;;;;;;;0.88;0.28;;;19.30;60.50;;;;;;5029600;28;20390;-52
2024/02/23 02:06:57;;;;;;;0.30;0.25;;;19.40;60.50;;;;;;5029864;28;20036;-49
2024/02/23 02:09:22;;;;;;;0.20;0.20;;;19.40;60.40;;;;;;5034645;28;20514;-48
2024/02/23 02:11:48;;;;;;;0.22;0.20;;;19.40;60.40;;;;;;5027387;28;20057;-49
2024/02/23 02:14:15;;;;;;;0.82;0.20;;;19.40;60.40;;;;;;5034580;28;20413;-48
2024/02/23 02:16:41;;;;;;;0.40;0.20;;;19.40;60.30;;;;;;5034835;28;20029;-48
2024/02/23 02:19:06;;;;;;;0.22;0.20;;;19.40;60.30;;;;;;5031508;28;20454;-51
2024/02/23 02:21:33;;;;;;;0.52;0.25;;;19.30;60.20;;;;;;5035824;28;20083;-51
2024/02/23 02:23:58;;;;;;;0.40;0.30;;;19.40;60.30;;;;;;5029645;28;20117;-50
2024/02/23 02:26:24;;;;;;;0.40;0.22;;;19.40;60.30;;;;;;5032335;28;20124;-51
2024/02/23 02:28:49;;;;;;;0.32;0.25;;;19.40;60.20;;;;;;5023230;28;20661;-51
2024/02/23 02:31:15;;;;;;;0.55;0.20;;;19.40;60.20;;;;;;5020388;28;20511;-47
2024/02/23 02:33:41;;;;;;;0.30;0.20;;;19.40;60.30;;;;;;5030709;28;20043;-48
2024/02/23 02:36:07;;;;;;;0.73;0.20;;;19.30;60.10;;;;;;5018834;28;20455;-48
2024/02/23 02:38:35;;;;;;;0.20;0.20;;;19.30;60.10;;;;;;5030046;28;20032;-52
2024/02/23 02:41:01;;;;;;;0.98;0.28;;;19.40;60.20;;;;;;5028265;28;20029;-51
2024/02/23 02:43:27;;;;;;;0.32;0.30;;;19.30;60.20;;;;;;5034372;28;22827;-51
2024/02/23 02:45:52;;;;;;;0.22;0.20;;;19.40;60.20;;;;;;5028791;28;20509;-49
2024/02/23 02:48:18;;;;;;;0.28;0.20;;;19.40;60.20;;;;;;5031659;28;20153;-51
2024/02/23 02:50:44;;;;;;;0.50;0.20;;;19.30;60.10;;;;;;5026100;28;20449;-48
2024/02/23 02:53:10;;;;;;;0.50;0.10;;;19.30;60.10;;;;;;5037131;28;20029;-47
2024/02/23 02:55:36;;;;;;;0.38;0.28;;;19.30;60.10;;;;;;5030305;28;20420;-51
2024/02/23 02:58:02;;;;;;;0.50;0.25;;;19.30;60.10;;;;;;5029116;28;20041;-48
2024/02/23 03:00:28;;;;;;;0.30;0.20;;;19.30;60.10;;;;;;5023062;28;20118;-51
2024/02/23 03:02:54;;;;;;;0.30;0.10;;;19.40;60.10;;;;;;5028091;28;20414;-50
2024/02/23 03:05:19;;;;;;;0.68;0.20;;;19.40;60.10;;;;;;5027236;28;20675;-48
2024/02/23 03:07:45;;;;;;;0.22;0.20;;;19.40;60.10;;;;;;5032966;28;20029;-53
2024/02/23 03:10:10;;;;;;;0.30;0.20;;;19.40;60.10;;;;;;5030408;28;20041;-51
2024/02/23 03:12:36;;;;;;;0.38;0.30;;;19.40;60.10;;;;;;5035760;28;20144;-50
2024/02/23 03:15:05;;;;;;;0.55;0.20;;;19.30;60.10;;;;;;5028451;28;20116;-48
2024/02/23 03:17:30;;;;;;;0.10;0.10;;;19.30;60.00;;;;;;5028632;28;20029;-48
2024/02/23 03:19:56;;;;;;;0.50;0.20;;;19.30;60.00;;;;;;5027289;28;20037;-48
2024/02/23 03:22:21;;;;;;;0.30;0.30;;;19.30;60.00;;;;;;5031508;28;20030;-49
2024/02/23 03:24:47;;;;;;;0.60;0.20;;;19.30;60.10;;;;;;5026433;28;20097;-51
2024/02/23 03:27:12;;;;;;;0.52;0.20;;;19.30;60.10;;;;;;5034456;28;20120;-49
2024/02/23 03:29:39;;;;;;;0.50;0.20;;;19.30;60.00;;;;;;5030683;28;20048;-50
2024/02/23 03:32:05;;;;;;;0.20;0.20;;;19.30;60.00;;;;;;5036060;28;20112;-51
2024/02/23 03:34:30;;;;;;;0.22;0.20;;;19.30;59.90;;;;;;5029517;28;20037;-48
2024/02/23 03:36:58;;;;;;;0.30;0.30;;;19.30;59.90;;;;;;5026830;28;20029;-48
2024/02/23 03:39:23;;;;;;;0.20;0.20;;;19.30;60.00;;;;;;5027855;28;20067;-51
2024/02/23 03:41:49;;;;;;;0.73;0.20;;;19.30;59.90;;;;;;5015107;28;20574;-50
2024/02/23 03:44:14;;;;;;;0.50;0.20;;;19.30;59.90;;;;;;5026727;28;20049;-47
2024/02/23 03:46:40;;;;;;;0.30;0.30;;;19.30;59.90;;;;;;5033698;28;20032;-53
2024/02/23 03:49:05;;;;;;;0.35;0.22;;;19.30;59.90;;;;;;5029762;28;20743;-47
2024/02/23 03:51:32;;;;;;;0.30;0.20;;;19.30;59.80;;;;;;5037548;28;20035;-47
2024/02/23 03:53:58;;;;;;;0.50;0.30;;;19.20;59.80;;;;;;5031904;28;20045;-53
2024/02/23 03:56:23;;;;;;;0.20;0.20;;;19.30;59.80;;;;;;5035604;28;20044;-51
2024/02/23 03:58:49;;;;;;;0.52;0.20;;;19.30;59.80;;;;;;5035192;28;20037;-48
2024/02/23 04:01:14;;;;;;;0.10;0.10;;;19.30;59.80;;;;;;5027403;28;20048;-50
2024/02/23 04:03:40;;;;;;;0.20;0.17;;;19.30;59.80;;;;;;5033159;28;20497;-52
2024/02/23 04:06:06;;;;;;;0.30;0.17;;;19.20;59.80;;;;;;5013241;28;20033;-49
2024/02/23 04:08:32;;;;;;;0.50;0.17;;;19.20;59.80;;;;;;5032351;28;20032;-53
2024/02/23 04:10:57;;;;;;;0.60;0.20;;;19.20;59.70;;;;;;5032382;28;20099;-50
2024/02/23 04:13:24;;;;;;;0.43;0.20;;;19.20;59.70;;;;;;5026514;28;20043;-48
2024/02/23 04:15:49;;;;;;;0.10;0.10;;;19.20;59.80;;;;;;5029908;28;20040;-50
2024/02/23 04:18:15;;;;;;;0.30;0.20;;;19.20;59.80;;;;;;5035377;28;20430;-51
2024/02/23 04:20:41;;;;;;;0.28;0.17;;;19.20;59.80;;;;;;5035897;28;20087;-52
2024/02/23 04:23:06;;;;;;;0.25;0.10;;;19.20;59.80;;;;;;5037453;28;20036;-52
2024/02/23 04:25:32;;;;;;;0.10;0.10;;;19.20;59.80;;;;;;5032554;28;20090;-49
2024/02/23 04:27:57;;;;;;;0.55;0.20;;;19.20;59.80;;;;;;5035622;28;20032;-48
2024/02/23 04:30:23;;;;;;;0.85;0.10;;;19.20;59.80;;;;;;5033578;28;20030;-52
2024/02/23 04:32:48;;;;;;;0.22;0.20;;;19.20;59.80;;;;;;5028273;28;20125;-47
2024/02/23 04:35:14;;;;;;;0.47;0.20;;;19.20;59.80;;;;;;5030630;28;20809;-48
2024/02/23 04:37:40;;;;;;;0.28;0.20;;;19.20;59.80;;;;;;5027710;28;20156;-51
2024/02/23 04:40:06;;;;;;;0.32;0.10;;;19.10;59.70;;;;;;5033094;28;20033;-53
2024/02/23 04:42:32;;;;;;;0.10;0.10;;;19.20;59.70;;;;;;5031752;28;20068;-49
2024/02/23 04:44:57;;;;;;;0.10;0.10;;;19.20;59.70;;;;;;5036584;28;20053;-52
2024/02/23 04:47:23;;;;;;;0.73;0.25;;;19.20;59.70;;;;;;5031550;28;20029;-47
2024/02/23 04:49:49;;;;;;;0.20;0.10;;;19.20;59.70;;;;;;5036434;28;20040;-47
2024/02/23 04:52:15;;;;;;;0.30;0.10;;;19.20;59.70;;;;;;5030668;28;20190;-54
2024/02/23 04:54:40;;;;;;;0.30;0.10;;;19.20;59.70;;;;;;5035877;28;20504;-47
2024/02/23 04:57:06;;;;;;;0.38;0.20;;;19.20;59.60;;;;;;5031037;28;20729;-52
2024/02/23 04:59:32;;;;;;;0.40;0.40;;;19.20;59.60;;;;;;5034629;28;20501;-52
2024/02/23 05:01:57;;;;;;;0.15;0.15;;;19.20;59.60;;;;;;5030270;28;20033;-50
2024/02/23 05:04:23;;;;;;;1.38;0.40;;;19.20;59.70;;;;;;5030847;28;20546;-48
2024/02/23 05:06:49;;;;;;;0.75;0.20;;;19.20;59.60;;;;;;5029613;28;20756;-48
2024/02/23 05:09:14;;;;;;;0.10;0.10;;;19.20;59.60;;;;;;5028819;28;20061;-50
2024/02/23 05:11:40;;;;;;;0.68;0.20;;;19.20;59.60;;;;;;5030793;28;20044;-50
2024/02/23 05:14:05;;;;;;;0.75;0.20;;;19.10;59.50;;;;;;5028977;28;20033;-48
2024/02/23 05:16:31;;;;;;;0.40;0.17;;;19.10;59.60;;;;;;5029495;28;20033;-48
2024/02/23 05:18:56;;;;;;;0.25;0.10;;;19.10;59.50;;;;;;5033996;28;20033;-48
2024/02/23 05:21:22;;;;;;;1.10;0.20;;;19.10;59.60;;;;;;5034584;28;20116;-53
2024/02/23 05:23:47;;;;;;;0.45;0.13;;;19.10;59.60;;;;;;5028822;28;20033;-53
2024/02/23 05:26:13;;;;;;;0.28;0.20;;;19.10;59.70;;;;;;5031044;28;20037;-48
2024/02/23 05:28:38;;;;;;;0.43;0.20;;;19.10;59.70;;;;;;5032321;28;20418;-51
2024/02/23 05:31:04;;;;;;;0.40;0.20;;;19.10;59.70;;;;;;5034336;28;20025;-53
2024/02/23 05:33:30;;;;;;;0.20;0.20;;;19.10;59.70;;;;;;5030354;28;20037;-48
2024/02/23 05:35:55;;;;;;;0.30;0.20;;;19.00;59.80;;;;;;5033574;28;20078;-50
2024/02/23 05:38:21;;;;;;;0.55;0.20;;;19.00;60.00;;;;;;5032642;28;20108;-49
2024/02/23 05:40:48;;;;;;;0.10;0.10;;;19.00;59.90;;;;;;5030992;28;20120;-51
2024/02/23 05:43:13;;;;;;;0.20;0.20;;;19.00;60.00;;;;;;5029341;28;20025;-50
2024/02/23 05:45:39;;;;;;;0.43;0.20;;;19.00;60.10;;;;;;5031927;28;20041;-49
2024/02/23 05:48:06;;;;;;;0.55;0.30;;;19.00;60.00;;;;;;5030840;28;20380;-51
2024/02/23 05:50:32;;;;;;;0.20;0.10;;;19.00;60.60;;;;;;5032063;28;20029;-49
2024/02/23 05:52:58;;;;;;;0.75;0.20;;;19.00;60.00;;;;;;5031639;28;20075;-49
2024/02/23 05:55:23;;;;;;;1.88;0.52;;;19.00;60.00;;;;;;5029331;28;20033;-50
2024/02/23 05:57:50;;;;;;;0.28;0.20;;;19.00;60.00;;;;;;5032319;28;20083;-52
2024/02/23 06:00:18;;;;;;;1.08;0.20;;;19.00;60.00;;;;;;5028175;28;20025;-49
2024/02/23 06:02:44;;;;;;;1.65;0.30;;;19.00;60.10;;;;;;5010144;28;20029;-50
2024/02/23 06:05:11;;;;;;;1.48;0.17;;;19.10;60.50;;;;;;5029386;28;20095;-50
2024/02/23 06:07:37;;;;;;;2.30;0.50;;;19.20;60.70;;;;;;5028339;28;20071;-54
2024/02/23 06:10:03;;;;;;;0.73;0.20;;;19.20;60.80;;;;;;5029277;28;20670;-49
2024/02/23 06:12:28;;;;;;;1.38;0.22;;;19.20;60.90;;;;;;5026681;28;20040;-52
2024/02/23 06:14:55;;;;;;;1.35;0.20;;;19.20;60.90;;;;;;5031961;28;20037;-50
2024/02/23 06:17:20;;;;;;;1.35;0.30;;;19.20;61.20;;;;;;5022796;28;20598;-48
2024/02/23 06:19:46;;;;;;;0.40;0.30;;;19.20;61.20;;;;;;5028857;28;20025;-52
2024/02/23 06:22:12;;;;;;;2.67;0.40;;;19.20;61.10;;;;;;5010248;28;20473;-52
2024/02/23 06:24:37;;;;;;;2.67;0.25;;;19.20;61.10;;;;;;5030411;28;20021;-51
2024/02/23 06:27:03;;;;;;;1.65;0.25;;;19.20;60.90;;;;;;5025565;28;20402;-49
2024/02/23 06:29:29;;;;;;;1.48;0.30;;;19.20;60.80;;;;;;5033318;28;20091;-50
2024/02/23 06:31:55;;;;;;;2.60;0.40;;;19.20;60.70;;;;;;5030016;28;20033;-48
2024/02/23 06:34:21;;;;;;;2.80;0.30;;;19.20;60.70;;;;;;5032128;28;20395;-48
2024/02/23 06:36:46;;;;;;;7.97;0.60;;;19.20;60.60;;;;;;5030356;28;20021;-53
2024/02/23 06:39:12;;;;;;;3.03;0.30;;;19.10;60.50;;;;;;5031694;28;20040;-51
2024/02/23 06:41:40;;;;;;;1.65;0.43;;;19.10;60.60;;;;;;5029042;28;20029;-53
2024/02/23 06:44:06;;;;;;;0.20;0.10;;;19.10;60.60;;;;;;5033893;28;20120;-50
2024/02/23 06:46:31;;;;;;;3.25;0.38;;;19.10;61.20;;;;;;5030897;28;20104;-47
2024/02/23 06:48:57;;;;;;;3.60;0.43;;;19.00;60.50;;;;;;5036547;28;20591;-51
2024/02/23 06:51:26;;;;;;;3.40;0.43;;;19.00;60.50;;;;;;5027889;28;20037;-48
2024/02/23 06:53:52;;;;;;;1.10;0.30;;;19.00;60.50;;;;;;5021710;28;20035;-51
2024/02/23 06:56:17;;;;;;;1.85;0.30;;;19.00;60.50;;;;;;5026634;28;20399;-47
2024/02/23 06:58:43;;;;;;;0.88;0.20;;;19.00;60.50;;;;;;5035127;28;20085;-53
2024/02/23 07:01:12;;;;;;;3.25;0.28;;;19.00;60.40;;;;;;5024932;28;20402;-49
2024/02/23 07:03:38;;;;;;;4.13;0.40;;;19.00;60.40;;;;;;5034609;28;20022;-53
2024/02/23 07:06:03;;;;;;;2.63;0.50;;;19.00;60.30;;;;;;5027978;28;20026;-52
2024/02/23 07:08:29;;;;;;;3.15;0.50;;;19.00;60.30;;;;;;5033702;28;20045;-50
2024/02/23 07:10:55;;;;;;;1.75;0.40;;;19.00;60.00;;;;;;5029593;28;20040;-52
2024/02/23 07:13:21;;;;;;;3.30;0.85;;;19.00;60.20;;;;;;5032391;28;20025;-49
2024/02/23 07:15:46;;;;;;;1.50;0.73;;;19.00;60.00;;;;;;5029619;28;20371;-54
2024/02/23 07:18:12;;;;;;;0.85;0.50;;;19.00;60.20;;;;;;5031227;28;20031;-50
2024/02/23 07:20:38;;;;;;;2.67;0.70;;;19.00;60.30;;;;;;5033146;28;20172;-52
2024/02/23 07:23:04;;;;;;;2.22;1.13;;;19.00;60.30;;;;;;5036846;28;20040;-51
2024/02/23 07:25:29;;;;;;;2.38;0.82;;;18.90;60.30;;;;;;5032586;28;20029;-53
2024/02/23 07:27:55;;;;;;;3.00;1.30;;;18.90;60.40;;;;;;5032531;28;20029;-51
2024/02/23 07:30:21;;;;;;;2.90;1.23;;;18.90;60.40;;;;;;5034441;28;20037;-51
2024/02/23 07:32:46;;;;;;;4.90;1.50;;;18.90;60.50;;;;;;5034412;28;20112;-48
2024/02/23 07:35:12;;;;;;;2.05;1.20;;;18.90;60.50;;;;;;5033171;28;20036;-50
2024/02/23 07:37:38;;;;;;;4.72;1.17;;;18.90;60.60;;;;;;5038035;28;20022;-50
2024/02/23 07:40:04;;;;;;;4.00;1.50;;;18.80;60.50;;;;;;5037728;28;20431;-51
2024/02/23 07:42:32;;;;;;;3.42;1.20;;;18.80;60.50;;;;;;5036141;28;20025;-51
2024/02/23 07:44:58;;;;;;;3.10;1.02;;;18.80;60.60;;;;;;5036557;28;20044;-50
2024/02/23 07:47:26;;;;;;;4.18;1.20;;;18.80;60.60;;;;;;5037210;28;20038;-51
2024/02/23 07:49:52;;;;;;;5.68;1.80;;;18.80;60.70;;;;;;5020531;28;20021;-48
2024/02/23 07:52:17;;;;;;;11.23;4.40;;;18.80;60.80;;;;;;5034560;28;20028;-48
2024/02/23 07:54:43;;;;;;;16.27;6.40;;;18.80;61.30;;;;;;5033586;28;20025;-49
2024/02/23 07:57:08;;;;;;;14.93;6.63;;;18.80;62.00;;;;;;5035773;28;20025;-58
2024/02/23 07:59:35;;;;;;;14.38;6.45;;;18.90;62.00;;;;;;5039198;28;20032;-48
2024/02/23 08:02:00;;;;;;;14.23;6.05;;;18.80;61.90;;;;;;5034931;28;20036;-49
2024/02/23 08:04:26;;;;;;;12.45;6.28;;;18.90;62.90;;;;;;5025181;28;20025;-49
2024/02/23 08:06:51;;;;;;;11.23;6.07;;;18.90;62.80;;;;;;5037385;28;20029;-50
2024/02/23 08:09:17;;;;;;;12.07;6.07;;;18.90;62.60;;;;;;5035306;28;20118;-50
2024/02/23 08:11:43;;;;;;;11.77;5.63;;;18.80;62.40;;;;;;5039552;28;20159;-49
2024/02/23 08:14:08;;;;;;;13.82;6.50;;;18.80;62.30;;;;;;5030703;28;20731;-58
2024/02/23 08:16:34;;;;;;;17.60;5.90;;;18.80;62.20;;;;;;5034362;28;20025;-50
2024/02/23 08:18:59;;;;;;;17.00;6.53;;;18.80;62.00;;;;;;5028658;28;20029;-49
2024/02/23 08:21:26;;;;;;;14.00;5.40;;;18.80;61.90;;;;;;5026257;28;20693;-51
2024/02/23 08:23:51;;;;;;;10.65;5.43;;;18.70;61.70;;;;;;5030763;28;20037;-49
2024/02/23 08:26:17;;;;;;;8.18;5.07;;;18.70;61.70;;;;;;5025915;28;20442;-49
2024/02/23 08:28:42;;;;;;;11.60;5.35;;;18.70;61.60;;;;;;5024275;28;20047;-51
2024/02/23 08:31:08;;;;;;;9.93;4.80;;;18.70;61.50;;;;;;5030513;28;20083;-52
2024/02/23 08:33:34;;;;;;;9.20;5.15;;;18.70;61.50;;;;;;5024768;28;20033;-49
2024/02/23 08:35:59;;;;;;;15.60;5.32;;;18.70;61.50;;;;;;5026261;28;20041;-49
2024/02/23 08:38:25;;;;;;;9.63;4.80;;;18.70;61.60;;;;;;5026785;28;20501;-49
2024/02/23 08:40:51;;;;;;;10.00;4.03;;;18.80;61.40;;;;;;5008503;28;20578;-51
2024/02/23 08:43:16;;;;;;;8.32;4.50;;;18.80;61.20;;;;;;5024294;28;20454;-50
2024/02/23 08:45:42;;;;;;;7.47;4.53;;;18.90;60.90;;;;;;5028293;28;20090;-49
2024/02/23 08:48:08;;;;;;;8.10;4.82;;;19.00;60.70;;;;;;5022455;28;20065;-51
2024/02/23 08:50:34;;;;;;;7.25;4.05;;;19.10;60.30;;;;;;5025563;28;20415;-47
2024/02/23 08:52:59;;;;;;;9.10;4.28;;;19.30;60.00;;;;;;5028184;28;20044;-49
2024/02/23 08:55:25;;;;;;;10.63;4.60;;;19.40;59.50;;;;;;5026205;28;20095;-50
2024/02/23 08:57:50;;;;;;;7.07;3.90;;;19.60;59.30;;;;;;5027040;28;20037;-50
2024/02/23 09:00:16;;;;;;;6.70;4.47;;;19.70;58.90;;;;;;5029659;28;20041;-52
2024/02/23 09:02:42;;;;;;;8.80;4.00;;;19.90;58.60;;;;;;4980583;28;20618;-51
2024/02/23 09:05:08;;;;;;;7.15;3.67;;;20.00;58.40;;;;;;5020428;28;20112;-50
2024/02/23 09:07:34;;;;;;;6.05;3.85;;;20.10;58.10;;;;;;5026380;28;20036;-51
2024/02/23 09:09:59;;;;;;;6.13;3.63;;;20.30;57.90;;;;;;5025712;28;20033;-50
2024/02/23 09:12:25;;;;;;;7.00;3.50;;;20.40;57.70;;;;;;5023655;28;20041;-52
2024/02/23 09:14:51;;;;;;;6.60;4.30;;;20.50;57.40;;;;;;5025251;28;20025;-48
2024/02/23 09:17:18;;;;;;;7.95;3.95;;;20.50;57.10;;;;;;5022773;28;20035;-51
2024/02/23 09:19:44;;;;;;;4.47;3.45;;;20.70;57.10;;;;;;4984486;28;20041;-53
2024/02/23 09:22:09;;;;;;;5.82;3.30;;;20.60;57.10;;;;;;5009316;28;20032;-53
2024/02/23 09:24:35;;;;;;;5.97;3.80;;;20.70;57.00;;;;;;5022249;28;20410;-49
2024/02/23 09:27:00;;;;;;;5.50;3.25;;;20.60;57.10;;;;;;5026499;28;20033;-52
2024/02/23 09:29:26;;;;;;;5.85;3.45;;;20.60;57.10;;;;;;5029936;28;20037;-49
2024/02/23 09:31:52;;;;;;;6.60;3.38;;;20.60;57.20;;;;;;5018833;28;20029;-48
2024/02/23 09:34:18;;;;;;;6.50;3.63;;;20.50;57.40;;;;;;5021759;28;20540;-52
2024/02/23 09:36:43;;;;;;;6.25;3.08;;;20.50;57.50;;;;;;5024209;28;20037;-49
2024/02/23 09:39:09;;;;;;;6.55;3.28;;;20.40;57.60;;;;;;5024879;28;20030;-48
2024/02/23 09:41:36;;;;;;;6.25;3.30;;;20.40;57.80;;;;;;5020707;28;20657;-47
2024/02/23 09:44:02;;;;;;;5.78;3.03;;;20.30;57.80;;;;;;5025185;28;20055;-49
2024/02/23 09:46:29;;;;;;;4.05;2.50;;;20.30;58.00;;;;;;5020511;28;20059;-49
2024/02/23 09:48:56;;;;;;;6.70;3.00;;;20.20;58.00;;;;;;5023455;28;20844;-51
2024/02/23 09:51:23;;;;;;;5.85;2.70;;;20.20;58.20;;;;;;5022908;28;20045;-50
2024/02/23 09:53:51;;;;;;;5.13;2.60;;;20.10;58.30;;;;;;5022245;28;20032;-51
2024/02/23 09:56:17;;;;;;;6.43;2.60;;;20.00;58.40;;;;;;5013073;28;20037;-49
2024/02/23 09:58:44;;;;;;;4.25;2.55;;;20.00;58.50;;;;;;5021085;28;20057;-47
2024/02/23 10:01:11;;;;;;;3.85;2.60;;;20.00;58.60;;;;;;5023268;28;20056;-52
2024/02/23 10:03:38;;;;;;;4.88;2.45;;;19.90;58.70;;;;;;5022458;28;20116;-55
2024/02/23 10:06:04;;;;;;;5.65;3.10;;;19.90;58.90;;;;;;5026401;28;20521;-52
2024/02/23 10:08:30;;;;;;;3.67;2.63;;;19.80;58.80;;;;;;5026824;28;20102;-55
2024/02/23 10:10:56;;;;;;;5.30;2.58;;;19.80;58.80;;;;;;5022933;28;20041;-52
2024/02/23 10:13:26;;;;;;;4.10;2.25;;;19.70;58.80;;;;;;5024998;28;20040;-54
2024/02/23 10:15:52;;;;;;;7.75;2.53;;;19.70;58.90;;;;;;5020619;28;20029;-49
2024/02/23 10:18:18;;;;;;;3.03;2.28;;;19.70;59.00;;;;;;5023413;28;20044;-49
2024/02/23 10:20:44;;;;;;;7.60;2.67;;;19.70;59.10;;;;;;5019581;28;20041;-48
2024/02/23 10:23:09;;;;;;;4.07;2.60;;;19.60;59.20;;;;;;5005066;28;20041;-47
2024/02/23 10:25:36;;;;;;;5.35;2.50;;;19.60;59.30;;;;;;5016853;28;20029;-49
2024/02/23 10:30:31;;;;;;;4.57;2.42;;;19.50;59.30;;;;;;5029226;28;20160;-53
2024/02/23 10:32:57;;;;;;;3.45;1.80;;;19.50;59.40;;;;;;5016044;28;20700;-49
2024/02/23 10:35:24;;;;;;;2.92;2.00;;;19.50;59.40;;;;;;5025711;28;20069;-52
2024/02/23 10:37:52;;;;;;;4.45;2.10;;;19.40;59.50;;;;;;5029995;28;20029;-51
2024/02/23 10:40:18;;;;;;;3.72;1.85;;;19.40;59.60;;;;;;5008030;28;20033;-50
2024/02/23 10:42:50;;;;;;;3.92;2.15;;;19.40;59.70;;;;;;5029110;28;20037;-52
2024/02/23 10:45:18;;;;;;;3.38;2.25;;;19.40;60.00;;;;;;5031163;28;20033;-51
2024/02/23 10:47:44;;;;;;;5.20;2.22;;;19.40;59.80;;;;;;5037803;28;20113;-49
2024/02/23 10:50:11;;;;;;;4.07;1.85;;;19.30;59.80;;;;;;5031594;28;20136;-51
2024/02/23 10:52:36;;;;;;;2.83;1.95;;;19.30;59.80;;;;;;5033100;28;20038;-49
2024/02/23 10:55:05;;;;;;;2.28;1.67;;;19.30;59.90;;;;;;5031281;28;20094;-51
2024/02/23 10:57:34;;;;;;;4.90;1.95;;;19.30;60.00;;;;;;5029625;28;20040;-49
2024/02/23 11:00:00;;;;;;;2.88;1.70;;;19.20;59.90;;;;;;5033235;28;20025;-49
2024/02/23 11:02:29;;;;;;;4.25;2.10;;;19.30;60.00;;;;;;5041962;28;20035;-49
2024/02/23 11:04:57;;;;;;;5.50;2.53;;;19.20;60.70;;;;;;5035409;28;20037;-51
2024/02/23 11:07:25;;;;;;;2.45;1.40;;;19.20;60.00;;;;;;5034686;28;20029;-53
2024/02/23 11:09:55;;;;;;;2.38;1.80;;;19.20;60.10;;;;;;5034569;28;20490;-50
2024/02/23 11:12:33;;;;;;;2.72;1.60;;;19.20;60.10;;;;;;5021946;28;20061;-50
2024/02/23 11:15:00;;;;;;;2.60;1.60;;;19.20;60.20;;;;;;5033048;28;20032;-51
2024/02/23 11:17:30;;;;;;;3.22;1.60;;;19.20;60.20;;;;;;5036219;28;20037;-49
2024/02/23 11:19:57;;;;;;;2.28;1.65;;;19.20;60.20;;;;;;5038627;28;20047;-50
2024/02/23 11:22:26;;;;;;;3.20;2.13;;;19.10;60.20;;;;;;5040098;28;20025;-51
2024/02/23 11:24:52;;;;;;;3.08;1.85;;;19.10;60.20;;;;;;5034112;28;20045;-49
2024/02/23 11:27:18;;;;;;;2.75;1.60;;;19.10;60.30;;;;;;5033804;28;20013;-49
2024/02/23 11:29:50;;;;;;;2.05;1.38;;;19.10;60.30;;;;;;5038406;28;20786;-49
2024/02/23 11:32:17;;;;;;;1.85;1.25;;;19.10;60.30;;;;;;5031916;28;20033;-51
2024/02/23 11:34:55;;;;;;;2.17;1.20;;;19.10;60.40;;;;;;5036750;28;20026;-57
2024/02/23 11:37:21;;;;;;;3.08;1.45;;;19.00;60.40;;;;;;5016664;28;20525;-48
2024/02/23 11:39:46;;;;;;;3.58;1.67;;;19.10;60.30;;;;;;5038227;28;20117;-56
2024/02/23 11:42:12;;;;;;;2.13;1.92;;;19.00;60.40;;;;;;5035090;28;20049;-51
2024/02/23 11:44:38;;;;;;;2.97;1.42;;;19.00;60.40;;;;;;5036969;28;20572;-48
2024/02/23 11:47:03;;;;;;;2.13;1.33;;;19.00;60.50;;;;;;5027206;28;20388;-51
2024/02/23 11:49:29;;;;;;;2.42;1.80;;;19.00;60.50;;;;;;5031508;28;20071;-56
2024/02/23 11:51:55;;;;;;;2.28;1.58;;;19.00;60.50;;;;;;5031620;28;20443;-52
2024/02/23 11:54:21;;;;;;;2.30;1.35;;;19.00;60.50;;;;;;5030227;28;20104;-51
2024/02/23 11:56:49;;;;;;;2.40;1.35;;;19.00;60.60;;;;;;5009998;28;21073;-50
2024/02/23 11:59:15;;;;;;;3.05;1.75;;;19.00;60.60;;;;;;5030832;28;20036;-53
2024/02/23 12:01:41;;;;;;;2.80;1.50;;;19.00;60.80;;;;;;5027695;28;20075;-56
2024/02/23 12:04:07;;;;;;;4.30;1.40;;;19.00;60.70;;;;;;5025556;28;20672;-48
2024/02/23 12:06:34;;;;;;;2.38;1.50;;;18.90;60.70;;;;;;5014239;28;20681;-49
2024/02/23 12:09:00;;;;;;;3.28;1.30;;;18.90;60.80;;;;;;5004147;28;20033;-50
2024/02/23 12:11:26;;;;;;;2.35;1.35;;;18.90;60.80;;;;;;5027964;28;20069;-52
2024/02/23 12:13:52;;;;;;;2.05;1.25;;;18.90;60.70;;;;;;5030473;28;20601;-53
2024/02/23 12:16:17;;;;;;;1.58;1.05;;;18.90;60.80;;;;;;5026257;28;20039;-54
2024/02/23 12:18:43;;;;;;;2.17;1.15;;;18.90;60.80;;;;;;5027429;28;20120;-53
2024/02/23 12:21:09;;;;;;;3.17;1.15;;;18.80;60.60;;;;;;5026810;28;20037;-50
2024/02/23 12:23:48;;;;;;;3.08;1.27;;;18.80;60.70;;;;;;5029489;28;20033;-51
2024/02/23 12:26:16;;;;;;;1.70;1.23;;;18.80;60.80;;;;;;5012287;28;20189;-54
2024/02/23 12:28:41;;;;;;;3.22;1.23;;;18.80;60.80;;;;;;5019792;28;20581;-54
2024/02/23 12:31:07;;;;;;;1.67;1.10;;;18.80;60.60;;;;;;5030716;28;20113;-54
2024/02/23 12:33:34;;;;;;;1.58;1.00;;;18.80;60.80;;;;;;5035909;28;20043;-50
2024/02/23 12:36:01;;;;;;;1.67;0.77;;;18.80;60.70;;;;;;5026415;28;20060;-49
2024/02/23 12:38:27;;;;;;;2.03;1.20;;;18.80;60.70;;;;;;5021363;28;20165;-49
2024/02/23 12:40:53;;;;;;;1.80;1.17;;;18.80;60.80;;;;;;5030083;28;20489;-48